createdAt,value
2018-09-21T00:00:34.891Z,986.74
2018-09-21T00:01:35.041Z,986.78
2018-09-21T00:02:35.193Z,986.76
2018-09-21T00:03:35.327Z,986.72
2018-09-21T00:04:35.463Z,986.67
2018-09-21T00:05:35.601Z,986.68
2018-09-21T00:06:35.752Z,986.66
2018-09-21T00:07:35.887Z,986.58
2018-09-21T00:08:36.032Z,986.58
2018-09-21T00:09:36.172Z,986.56
2018-09-21T00:10:36.312Z,986.57
2018-09-21T00:11:36.450Z,986.58
2018-09-21T00:12:36.585Z,986.56
2018-09-21T00:13:36.727Z,986.54
2018-09-21T00:14:36.910Z,986.56
2018-09-21T00:15:37.039Z,986.51
2018-09-21T00:16:37.175Z,986.54
2018-09-21T00:17:37.318Z,986.50
2018-09-21T00:18:37.459Z,986.47
2018-09-21T00:19:38.499Z,986.46
2018-09-21T00:20:37.734Z,986.44
2018-09-21T00:21:37.914Z,986.42
2018-09-21T00:22:38.060Z,986.42
2018-09-21T00:23:38.195Z,986.42
2018-09-21T00:24:38.333Z,986.45
2018-09-21T00:25:38.492Z,986.42
2018-09-21T00:26:38.626Z,986.45
2018-09-21T00:27:39.501Z,986.41
2018-09-21T00:28:38.988Z,986.37
2018-09-21T00:29:39.071Z,986.41
2018-09-21T00:30:39.212Z,986.34
2018-09-21T00:31:39.389Z,986.35
2018-09-21T00:32:39.520Z,986.29
2018-09-21T00:33:39.659Z,986.33
2018-09-21T00:34:40.532Z,986.26
2018-09-21T00:35:39.975Z,986.28
2018-09-21T00:36:40.105Z,986.29
2018-09-21T00:37:40.246Z,986.27
2018-09-21T00:38:40.390Z,986.27
2018-09-21T00:39:40.556Z,986.25
2018-09-21T00:40:40.692Z,986.27
2018-09-21T00:41:40.831Z,986.25
2018-09-21T00:42:40.969Z,986.18
2018-09-21T00:43:41.117Z,986.23
2018-09-21T00:44:41.260Z,986.17
2018-09-21T00:45:41.390Z,986.15
2018-09-21T00:46:42.046Z,986.14
2018-09-21T00:47:41.705Z,986.11
2018-09-21T00:48:41.847Z,986.11
2018-09-21T00:49:42.064Z,986.10
2018-09-21T00:50:42.084Z,986.10
2018-09-21T00:51:42.221Z,986.10
2018-09-21T00:52:42.360Z,986.09
2018-09-21T00:53:42.493Z,986.11
2018-09-21T00:54:42.635Z,986.07
2018-09-21T00:55:42.776Z,986.07
2018-09-21T00:56:42.917Z,986.09
2018-09-21T00:57:43.056Z,986.08
2018-09-21T00:58:43.197Z,986.03
2018-09-21T00:59:43.349Z,986.08
2018-09-21T01:00:43.484Z,986.03
2018-09-21T01:01:43.624Z,986.03
2018-09-21T01:02:43.761Z,986.02
2018-09-21T01:03:43.905Z,986.01
2018-09-21T01:04:44.058Z,986.01
2018-09-21T01:05:44.192Z,985.95
2018-09-21T01:06:44.327Z,985.98
2018-09-21T01:07:44.465Z,985.93
2018-09-21T01:08:44.620Z,985.92
2018-09-21T01:09:44.781Z,985.90
2018-09-21T01:10:44.919Z,985.89
2018-09-21T01:11:45.086Z,985.86
2018-09-21T01:12:45.282Z,985.82
2018-09-21T01:13:45.398Z,985.85
2018-09-21T01:14:45.541Z,985.79
2018-09-21T01:15:45.718Z,985.79
2018-09-21T01:16:45.852Z,985.79
2018-09-21T01:17:45.993Z,985.73
2018-09-21T01:18:46.138Z,985.73
2018-09-21T01:19:46.285Z,985.74
2018-09-21T01:20:46.420Z,985.74
2018-09-21T01:21:46.557Z,985.70
2018-09-21T01:22:46.697Z,985.73
2018-09-21T01:23:46.869Z,985.73
2018-09-21T01:24:47.008Z,985.74
2018-09-21T01:25:47.145Z,985.73
2018-09-21T01:26:47.292Z,985.72
2018-09-21T01:27:47.427Z,985.67
2018-09-21T01:28:47.565Z,985.68
2018-09-21T01:29:47.709Z,985.66
2018-09-21T01:30:47.868Z,985.69
2018-09-21T01:31:48.001Z,985.66
2018-09-21T01:32:48.213Z,985.61
2018-09-21T01:33:48.281Z,985.59
2018-09-21T01:34:48.432Z,985.60
2018-09-21T01:35:48.565Z,985.62
2018-09-21T01:36:48.705Z,985.64
2018-09-21T01:37:48.844Z,985.62
2018-09-21T01:38:48.996Z,985.62
2018-09-21T01:39:49.172Z,985.60
2018-09-21T01:40:49.283Z,985.56
2018-09-21T01:41:49.415Z,985.55
2018-09-21T01:42:49.562Z,985.55
2018-09-21T01:43:49.692Z,985.50
2018-09-21T01:44:49.834Z,985.53
2018-09-21T01:45:49.984Z,985.49
2018-09-21T01:46:50.126Z,985.50
2018-09-21T01:47:50.261Z,985.48
2018-09-21T01:48:50.405Z,985.49
2018-09-21T01:49:50.541Z,985.51
2018-09-21T01:50:50.683Z,985.46
2018-09-21T01:51:50.827Z,985.49
2018-09-21T01:52:50.962Z,985.53
2018-09-21T01:53:51.098Z,985.46
2018-09-21T01:54:51.250Z,985.46
2018-09-21T01:55:51.388Z,985.46
2018-09-21T01:56:51.532Z,985.44
2018-09-21T01:57:51.710Z,985.46
2018-09-21T01:58:51.847Z,985.47
2018-09-21T01:59:52.006Z,985.45
2018-09-21T02:00:52.685Z,985.41
2018-09-21T02:01:52.238Z,985.43
2018-09-21T02:02:52.457Z,985.40
2018-09-21T02:03:52.471Z,985.38
2018-09-21T02:04:52.610Z,985.36
2018-09-21T02:05:52.754Z,985.33
2018-09-21T02:06:52.892Z,985.36
2018-09-21T02:07:53.040Z,985.38
2018-09-21T02:08:53.188Z,985.34
2018-09-21T02:09:53.324Z,985.34
2018-09-21T02:10:53.462Z,985.32
2018-09-21T02:11:53.591Z,985.33
2018-09-21T02:12:53.759Z,985.28
2018-09-21T02:13:53.897Z,985.23
2018-09-21T02:14:54.033Z,985.25
2018-09-21T02:15:54.190Z,985.25
2018-09-21T02:16:54.312Z,985.22
2018-09-21T02:17:54.478Z,985.21
2018-09-21T02:18:54.600Z,985.23
2018-09-21T02:19:54.741Z,985.18
2018-09-21T02:20:54.921Z,985.16
2018-09-21T02:21:55.026Z,985.16
2018-09-21T02:22:55.168Z,985.19
2018-09-21T02:23:55.303Z,985.14
2018-09-21T02:24:55.447Z,985.14
2018-09-21T02:25:55.582Z,985.14
2018-09-21T02:26:55.726Z,985.15
2018-09-21T02:27:55.865Z,985.13
2018-09-21T02:28:56.001Z,985.15
2018-09-21T02:29:56.144Z,985.15
2018-09-21T02:30:56.286Z,985.09
2018-09-21T02:31:56.481Z,985.10
2018-09-21T02:32:56.573Z,985.13
2018-09-21T02:33:56.707Z,985.11
2018-09-21T02:34:56.842Z,985.11
2018-09-21T02:35:56.982Z,985.15
2018-09-21T02:36:57.118Z,985.10
2018-09-21T02:37:57.253Z,985.13
2018-09-21T02:38:57.396Z,985.13
2018-09-21T02:39:57.534Z,985.08
2018-09-21T02:40:57.677Z,985.10
2018-09-21T02:41:57.815Z,985.09
2018-09-21T02:42:57.954Z,985.10
2018-09-21T02:43:58.094Z,985.11
2018-09-21T02:44:58.249Z,985.11
2018-09-21T02:45:58.391Z,985.06
2018-09-21T02:46:58.527Z,985.09
2018-09-21T02:47:58.670Z,985.05
2018-09-21T02:48:58.816Z,985.03
2018-09-21T02:49:58.978Z,985.02
2018-09-21T02:50:59.116Z,984.99
2018-09-21T02:51:59.256Z,984.99
2018-09-21T02:52:59.388Z,984.94
2018-09-21T02:53:59.531Z,984.94
2018-09-21T02:54:59.665Z,984.92
2018-09-21T02:55:59.806Z,984.88
2018-09-21T02:56:59.969Z,984.83
2018-09-21T02:58:00.106Z,984.82
2018-09-21T02:59:00.244Z,984.81
2018-09-21T03:00:00.397Z,984.75
2018-09-21T03:01:00.560Z,984.78
2018-09-21T03:02:00.672Z,984.75
2018-09-21T03:03:00.812Z,984.71
2018-09-21T03:04:00.976Z,984.71
2018-09-21T03:05:01.115Z,984.68
2018-09-21T03:06:01.239Z,984.64
2018-09-21T03:07:01.384Z,984.69
2018-09-21T03:08:01.551Z,984.64
2018-09-21T03:09:01.687Z,984.65
2018-09-21T03:10:01.832Z,984.64
2018-09-21T03:11:01.972Z,984.60
2018-09-21T03:12:02.142Z,984.59
2018-09-21T03:13:02.274Z,984.57
2018-09-21T03:14:02.387Z,984.53
2018-09-21T03:15:02.529Z,984.54
2018-09-21T03:16:02.679Z,984.55
2018-09-21T03:17:02.819Z,984.57
2018-09-21T03:18:02.951Z,984.49
2018-09-21T03:19:03.086Z,984.46
2018-09-21T03:20:03.239Z,984.51
2018-09-21T03:21:03.374Z,984.50
2018-09-21T03:22:03.514Z,984.49
2018-09-21T03:23:03.655Z,984.54
2018-09-21T03:24:03.798Z,984.51
2018-09-21T03:25:03.936Z,984.52
2018-09-21T03:26:04.088Z,984.45
2018-09-21T03:27:04.228Z,984.46
2018-09-21T03:28:04.365Z,984.43
2018-09-21T03:29:04.541Z,984.43
2018-09-21T03:30:04.652Z,984.47
2018-09-21T03:31:04.786Z,984.45
2018-09-21T03:32:04.928Z,984.46
2018-09-21T03:33:05.070Z,984.42
2018-09-21T03:34:05.206Z,984.38
2018-09-21T03:35:05.368Z,984.35
2018-09-21T03:36:05.490Z,984.31
2018-09-21T03:37:05.635Z,984.31
2018-09-21T03:38:05.788Z,984.25
2018-09-21T03:39:05.920Z,984.18
2018-09-21T03:40:06.065Z,984.23
2018-09-21T03:41:06.238Z,984.19
2018-09-21T03:42:06.360Z,984.15
2018-09-21T03:43:06.503Z,984.15
2018-09-21T03:44:06.664Z,984.18
2018-09-21T03:45:06.795Z,984.16
2018-09-21T03:46:06.938Z,984.16
2018-09-21T03:47:07.083Z,984.11
2018-09-21T03:48:07.220Z,984.13
2018-09-21T03:49:07.357Z,984.06
2018-09-21T03:50:07.515Z,984.07
2018-09-21T03:51:07.653Z,984.02
2018-09-21T03:52:07.786Z,984.05
2018-09-21T03:53:07.925Z,984.04
2018-09-21T03:54:08.067Z,984.00
2018-09-21T03:55:08.194Z,984.01
2018-09-21T03:56:08.331Z,984.03
2018-09-21T03:57:08.475Z,984.04
2018-09-21T03:58:08.631Z,984.01
2018-09-21T03:59:08.765Z,984.00
2018-09-21T04:00:08.904Z,984.01
2018-09-21T04:01:09.080Z,984.02
2018-09-21T04:02:09.186Z,984.01
2018-09-21T04:03:09.323Z,983.99
2018-09-21T04:04:09.470Z,983.93
2018-09-21T04:05:09.621Z,983.89
2018-09-21T04:06:09.770Z,983.89
2018-09-21T04:07:09.921Z,983.89
2018-09-21T04:08:10.055Z,983.91
2018-09-21T04:09:10.196Z,983.84
2018-09-21T04:10:10.334Z,983.80
2018-09-21T04:11:10.469Z,983.84
2018-09-21T04:12:10.615Z,983.80
2018-09-21T04:13:10.747Z,983.75
2018-09-21T04:14:10.889Z,983.76
2018-09-21T04:15:11.036Z,983.73
2018-09-21T04:16:11.170Z,983.72
2018-09-21T04:17:11.317Z,983.72
2018-09-21T04:18:11.454Z,983.73
2018-09-21T04:19:11.595Z,983.71
2018-09-21T04:20:11.734Z,983.72
2018-09-21T04:21:11.873Z,983.74
2018-09-21T04:22:12.021Z,983.74
2018-09-21T04:23:12.389Z,983.73
2018-09-21T04:24:12.302Z,983.70
2018-09-21T04:25:12.445Z,983.70
2018-09-21T04:26:12.580Z,983.69
2018-09-21T04:27:12.719Z,983.70
2018-09-21T04:28:12.857Z,983.71
2018-09-21T04:29:12.996Z,983.68
2018-09-21T04:30:13.137Z,983.72
2018-09-21T04:31:13.267Z,983.65
2018-09-21T04:32:13.456Z,983.64
2018-09-21T04:33:13.574Z,983.63
2018-09-21T04:34:13.712Z,983.65
2018-09-21T04:35:13.846Z,983.60
2018-09-21T04:36:14.085Z,983.57
2018-09-21T04:37:14.940Z,983.50
2018-09-21T04:38:14.291Z,983.49
2018-09-21T04:39:14.446Z,983.46
2018-09-21T04:40:14.582Z,983.45
2018-09-21T04:41:14.719Z,983.46
2018-09-21T04:42:14.887Z,983.38
2018-09-21T04:43:15.020Z,983.39
2018-09-21T04:44:15.161Z,983.44
2018-09-21T04:45:15.320Z,983.42
2018-09-21T04:46:15.463Z,983.45
2018-09-21T04:47:15.602Z,983.42
2018-09-21T04:48:15.741Z,983.40
2018-09-21T04:49:15.923Z,983.39
2018-09-21T04:50:16.061Z,983.43
2018-09-21T04:51:16.203Z,983.38
2018-09-21T04:52:16.365Z,983.38
2018-09-21T04:53:16.519Z,983.40
2018-09-21T04:54:16.653Z,983.38
2018-09-21T04:55:16.790Z,983.30
2018-09-21T04:56:16.956Z,983.29
2018-09-21T04:57:17.089Z,983.28
2018-09-21T04:58:17.241Z,983.25
2018-09-21T04:59:17.375Z,983.24
2018-09-21T05:00:17.511Z,983.22
2018-09-21T05:01:17.651Z,983.17
2018-09-21T05:02:17.791Z,983.19
2018-09-21T05:03:17.922Z,983.20
2018-09-21T05:04:18.064Z,983.22
2018-09-21T05:05:18.204Z,983.20
2018-09-21T05:06:18.341Z,983.19
2018-09-21T05:07:18.482Z,983.17
2018-09-21T05:08:18.616Z,983.18
2018-09-21T05:09:18.759Z,983.16
2018-09-21T05:10:18.896Z,983.18
2018-09-21T05:11:19.037Z,983.16
2018-09-21T05:12:19.181Z,983.20
2018-09-21T05:13:19.319Z,983.16
2018-09-21T05:14:19.450Z,983.17
2018-09-21T05:15:19.591Z,983.16
2018-09-21T05:16:19.727Z,983.17
2018-09-21T05:17:19.866Z,983.13
2018-09-21T05:18:20.008Z,983.14
2018-09-21T05:19:20.157Z,983.11
2018-09-21T05:20:20.319Z,983.12
2018-09-21T05:21:20.445Z,983.06
2018-09-21T05:22:21.281Z,983.02
2018-09-21T05:23:20.702Z,983.06
2018-09-21T05:24:20.830Z,983.03
2018-09-21T05:25:20.966Z,983.02
2018-09-21T05:26:21.127Z,982.99
2018-09-21T05:27:21.268Z,982.97
2018-09-21T05:28:21.422Z,983.00
2018-09-21T05:29:21.551Z,982.96
2018-09-21T05:30:21.732Z,983.00
2018-09-21T05:31:21.872Z,982.97
2018-09-21T05:32:22.042Z,982.95
2018-09-21T05:33:22.172Z,982.94
2018-09-21T05:34:22.329Z,982.96
2018-09-21T05:35:22.454Z,982.99
2018-09-21T05:36:22.602Z,982.93
2018-09-21T05:37:23.614Z,982.96
2018-09-21T05:38:22.866Z,982.95
2018-09-21T05:39:23.033Z,982.96
2018-09-21T05:40:23.174Z,982.96
2018-09-21T05:41:23.316Z,982.94
2018-09-21T05:42:23.454Z,982.96
2018-09-21T05:43:23.604Z,982.99
2018-09-21T05:44:23.743Z,982.98
2018-09-21T05:45:23.908Z,982.99
2018-09-21T05:46:24.048Z,982.92
2018-09-21T05:47:24.187Z,982.96
2018-09-21T05:48:24.362Z,982.90
2018-09-21T05:49:24.499Z,982.86
2018-09-21T05:50:24.651Z,982.91
2018-09-21T05:51:24.775Z,982.87
2018-09-21T05:52:24.920Z,982.89
2018-09-21T05:53:25.063Z,982.85
2018-09-21T05:54:25.201Z,982.85
2018-09-21T05:55:25.337Z,982.82
2018-09-21T05:56:25.478Z,982.80
2018-09-21T05:57:25.639Z,982.80
2018-09-21T05:58:25.775Z,982.74
2018-09-21T05:59:25.912Z,982.75
2018-09-21T06:00:26.067Z,982.71
2018-09-21T06:01:26.211Z,982.72
2018-09-21T06:02:26.448Z,982.69
2018-09-21T06:03:26.490Z,982.66
2018-09-21T06:04:26.639Z,982.65
2018-09-21T06:05:26.769Z,982.63
2018-09-21T06:06:26.908Z,982.62
2018-09-21T06:07:27.051Z,982.62
2018-09-21T06:08:27.202Z,982.53
2018-09-21T06:09:28.075Z,982.54
2018-09-21T06:10:27.493Z,982.51
2018-09-21T06:11:27.634Z,982.55
2018-09-21T06:12:27.769Z,982.47
2018-09-21T06:13:27.969Z,982.53
2018-09-21T06:14:28.044Z,982.47
2018-09-21T06:15:28.192Z,982.47
2018-09-21T06:16:28.328Z,982.50
2018-09-21T06:17:28.473Z,982.46
2018-09-21T06:18:28.615Z,982.50
2018-09-21T06:19:28.763Z,982.51
2018-09-21T06:20:28.900Z,982.48
2018-09-21T06:21:29.036Z,982.50
2018-09-21T06:22:29.173Z,982.46
2018-09-21T06:23:29.311Z,982.50
2018-09-21T06:24:29.455Z,982.50
2018-09-21T06:25:29.591Z,982.44
2018-09-21T06:26:29.726Z,982.48
2018-09-21T06:27:29.870Z,982.46
2018-09-21T06:28:30.028Z,982.47
2018-09-21T06:29:30.270Z,982.44
2018-09-21T06:30:30.287Z,982.41
2018-09-21T06:31:30.430Z,982.39
2018-09-21T06:32:30.567Z,982.37
2018-09-21T06:33:30.710Z,982.33
2018-09-21T06:34:30.867Z,982.30
2018-09-21T06:35:31.007Z,982.27
2018-09-21T06:36:31.155Z,982.28
2018-09-21T06:37:31.291Z,982.29
2018-09-21T06:38:31.429Z,982.29
2018-09-21T06:39:31.607Z,982.31
2018-09-21T06:40:31.742Z,982.36
2018-09-21T06:41:31.876Z,982.37
2018-09-21T06:42:32.068Z,982.37
2018-09-21T06:43:32.184Z,982.38
2018-09-21T06:44:32.335Z,982.41
2018-09-21T06:45:32.475Z,982.41
2018-09-21T06:46:32.667Z,982.41
2018-09-21T06:47:32.776Z,982.40
2018-09-21T06:48:32.914Z,982.39
2018-09-21T06:49:33.058Z,982.42
2018-09-21T06:50:33.207Z,982.41
2018-09-21T06:51:33.347Z,982.40
2018-09-21T06:52:33.489Z,982.43
2018-09-21T06:53:33.642Z,982.39
2018-09-21T06:54:33.790Z,982.38
2018-09-21T06:55:33.933Z,982.35
2018-09-21T06:56:34.070Z,982.42
2018-09-21T06:57:34.232Z,982.39
2018-09-21T06:58:34.367Z,982.40
2018-09-21T06:59:34.535Z,982.39
2018-09-21T07:00:34.665Z,982.34
2018-09-21T07:01:34.877Z,982.42
2018-09-21T07:02:35.025Z,982.30
2018-09-21T07:03:35.099Z,982.32
2018-09-21T07:04:35.239Z,982.31
2018-09-21T07:05:35.377Z,982.38
2018-09-21T07:06:35.548Z,982.43
2018-09-21T07:07:35.675Z,982.32
2018-09-21T07:08:35.810Z,982.33
2018-09-21T07:09:35.953Z,982.39
2018-09-21T07:10:36.121Z,982.35
2018-09-21T07:11:36.265Z,982.38
2018-09-21T07:12:36.405Z,982.35
2018-09-21T07:13:36.545Z,982.38
2018-09-21T07:14:36.706Z,982.28
2018-09-21T07:15:36.837Z,982.24
2018-09-21T07:16:36.984Z,982.23
2018-09-21T07:17:37.118Z,982.16
2018-09-21T07:18:37.258Z,982.17
2018-09-21T07:19:37.397Z,982.28
2018-09-21T07:20:37.598Z,982.22
2018-09-21T07:21:37.630Z,982.14
2018-09-21T07:22:37.771Z,982.11
2018-09-21T07:23:38.774Z,982.22
2018-09-21T07:24:38.089Z,982.15
2018-09-21T07:25:38.223Z,982.02
2018-09-21T07:26:38.437Z,982.11
2018-09-21T07:27:38.478Z,982.03
2018-09-21T07:28:38.616Z,982.00
2018-09-21T07:29:38.757Z,982.17
2018-09-21T07:30:38.902Z,982.03
2018-09-21T07:31:39.059Z,982.09
2018-09-21T07:32:39.187Z,982.01
2018-09-21T07:33:39.326Z,982.07
2018-09-21T07:34:39.467Z,982.07
2018-09-21T07:35:39.619Z,982.11
2018-09-21T07:36:39.757Z,982.11
2018-09-21T07:37:39.928Z,982.05
2018-09-21T07:38:40.035Z,982.14
2018-09-21T07:39:40.186Z,982.09
2018-09-21T07:40:40.323Z,982.09
2018-09-21T07:41:40.465Z,982.14
2018-09-21T07:42:40.601Z,982.10
2018-09-21T07:43:40.747Z,982.04
2018-09-21T07:44:40.959Z,982.08
2018-09-21T07:45:41.022Z,981.99
2018-09-21T07:46:41.161Z,982.07
2018-09-21T07:47:41.307Z,982.09
2018-09-21T07:48:41.443Z,982.06
2018-09-21T07:49:41.585Z,982.01
2018-09-21T07:50:41.724Z,982.06
2018-09-21T07:51:41.862Z,982.16
2018-09-21T07:52:42.825Z,982.16
2018-09-21T07:55:14.710Z,982.19
2018-09-21T07:56:14.851Z,982.21
2018-09-21T07:57:14.993Z,982.11
2018-09-21T07:58:15.132Z,982.11
2018-09-21T07:59:15.271Z,982.16
2018-09-21T08:00:15.412Z,982.26
2018-09-21T08:01:15.558Z,982.13
2018-09-21T08:02:15.696Z,982.14
2018-09-21T08:03:15.892Z,982.26
2018-09-21T08:04:16.046Z,982.15
2018-09-21T08:05:16.225Z,982.27
2018-09-21T08:06:17.148Z,982.20
2018-09-21T08:07:16.511Z,982.39
2018-09-21T08:08:16.596Z,982.25
2018-09-21T08:09:16.748Z,982.17
2018-09-21T08:10:16.888Z,982.25
2018-09-21T08:11:17.036Z,982.22
2018-09-21T08:12:17.173Z,982.21
2018-09-21T08:13:17.312Z,982.09
2018-09-21T08:14:17.458Z,982.12
2018-09-21T08:15:17.605Z,982.10
2018-09-21T08:16:17.743Z,982.05
2018-09-21T08:17:17.879Z,982.02
2018-09-21T08:18:18.026Z,982.05
2018-09-21T08:19:18.192Z,982.04
2018-09-21T08:20:18.301Z,982.02
2018-09-21T08:21:18.444Z,982.04
2018-09-21T08:22:18.586Z,981.98
2018-09-21T08:23:18.726Z,981.90
2018-09-21T08:24:18.865Z,981.93
2018-09-21T08:25:19.654Z,981.96
2018-09-21T08:26:19.133Z,981.96
2018-09-21T08:27:19.285Z,981.97
2018-09-21T08:28:19.410Z,981.96
2018-09-21T08:29:19.577Z,982.01
2018-09-21T08:30:19.714Z,981.94
2018-09-21T08:31:19.901Z,981.85
2018-09-21T08:32:20.012Z,981.96
2018-09-21T08:33:20.208Z,981.85
2018-09-21T08:34:20.281Z,981.89
2018-09-21T08:35:20.417Z,981.84
2018-09-21T08:36:20.599Z,981.76
2018-09-21T08:37:20.799Z,981.84
2018-09-21T08:38:20.867Z,981.87
2018-09-21T08:39:21.013Z,981.91
2018-09-21T08:40:21.169Z,982.13
2018-09-21T08:41:21.311Z,982.07
2018-09-21T08:42:21.454Z,981.82
2018-09-21T08:43:21.609Z,981.90
2018-09-21T08:44:21.744Z,981.88
2018-09-21T08:45:21.891Z,981.95
2018-09-21T08:46:22.046Z,981.87
2018-09-21T08:47:22.177Z,981.71
2018-09-21T08:48:22.323Z,981.75
2018-09-21T08:49:22.462Z,981.76
2018-09-21T08:50:22.607Z,981.73
2018-09-21T08:51:22.755Z,981.74
2018-09-21T08:52:22.896Z,981.72
2018-09-21T08:53:23.037Z,981.87
2018-09-21T08:54:23.204Z,981.79
2018-09-21T08:55:23.351Z,981.78
2018-09-21T08:56:23.503Z,981.81
2018-09-21T08:57:23.640Z,981.92
2018-09-21T08:58:23.783Z,981.95
2018-09-21T08:59:23.939Z,981.93
2018-09-21T09:00:24.069Z,981.81
2018-09-21T09:01:24.210Z,981.77
2018-09-21T09:02:24.381Z,982.09
2018-09-21T09:03:24.718Z,981.76
2018-09-21T09:04:24.685Z,981.73
2018-09-21T09:05:24.821Z,981.85
2018-09-21T09:06:24.987Z,981.90
2018-09-21T09:07:25.123Z,982.01
2018-09-21T09:08:25.264Z,981.96
2018-09-21T09:09:25.405Z,982.55
2018-09-21T09:10:25.549Z,982.04
2018-09-21T09:11:25.682Z,982.04
2018-09-21T09:12:25.835Z,982.04
2018-09-21T09:13:25.980Z,982.26
2018-09-21T09:14:26.117Z,982.14
2018-09-21T09:15:26.253Z,982.37
2018-09-21T09:16:26.391Z,982.03
2018-09-21T09:17:27.082Z,982.11
2018-09-21T09:18:26.722Z,982.46
2018-09-21T09:19:26.864Z,982.13
2018-09-21T09:20:27.023Z,982.22
2018-09-21T09:21:27.157Z,982.21
2018-09-21T09:22:27.306Z,982.37
2018-09-21T09:23:27.457Z,982.23
2018-09-21T09:24:27.609Z,982.00
2018-09-21T09:25:27.743Z,981.99
2018-09-21T09:26:27.947Z,982.11
2018-09-21T09:27:28.033Z,982.02
2018-09-21T09:28:28.193Z,982.00
2018-09-21T09:29:28.332Z,982.10
2018-09-21T09:30:28.477Z,982.23
2018-09-21T09:31:28.615Z,982.31
2018-09-21T09:32:28.774Z,981.99
2018-09-21T09:33:28.909Z,982.18
2018-09-21T09:34:29.051Z,982.06
2018-09-21T09:35:29.197Z,981.87
2018-09-21T09:36:29.336Z,981.86
2018-09-21T09:37:29.480Z,981.84
2018-09-21T09:38:29.624Z,981.86
2018-09-21T09:39:29.767Z,981.80
2018-09-21T09:40:29.908Z,981.84
2018-09-21T09:41:30.096Z,981.87
2018-09-21T09:42:30.238Z,981.96
2018-09-21T09:43:30.384Z,981.83
2018-09-21T09:44:30.525Z,982.09
2018-09-21T09:45:30.667Z,981.85
2018-09-21T09:46:31.589Z,981.92
2018-09-21T09:47:31.014Z,981.98
2018-09-21T09:48:31.180Z,982.16
2018-09-21T09:49:31.296Z,982.01
2018-09-21T09:50:31.442Z,982.08
2018-09-21T09:51:31.579Z,981.96
2018-09-21T09:52:31.711Z,981.89
2018-09-21T09:53:31.860Z,981.97
2018-09-21T09:54:32.008Z,982.17
2018-09-21T09:55:32.168Z,981.83
2018-09-21T09:56:32.306Z,981.86
2018-09-21T09:57:32.444Z,981.82
2018-09-21T09:58:32.588Z,982.00
2018-09-21T09:59:32.731Z,981.81
2018-09-21T10:00:32.876Z,981.89
2018-09-21T10:01:33.020Z,981.79
2018-09-21T10:02:33.160Z,981.72
2018-09-21T10:03:33.377Z,982.02
2018-09-21T10:04:34.105Z,981.61
2018-09-21T10:05:33.639Z,981.71
2018-09-21T10:06:33.782Z,981.87
2018-09-21T10:07:33.914Z,981.78
2018-09-21T10:08:34.066Z,981.62
2018-09-21T10:09:34.224Z,981.76
2018-09-21T10:10:34.370Z,981.64
2018-09-21T10:11:34.520Z,981.67
2018-09-21T10:12:34.661Z,981.75
2018-09-21T10:13:34.797Z,981.75
2018-09-21T10:14:34.939Z,981.72
2018-09-21T10:15:35.082Z,981.45
2018-09-21T10:16:35.224Z,981.52
2018-09-21T10:17:35.368Z,981.62
2018-09-21T10:18:35.507Z,981.48
2018-09-21T10:19:35.654Z,981.54
2018-09-21T10:20:35.832Z,981.55
2018-09-21T10:21:35.957Z,981.58
2018-09-21T10:22:36.105Z,981.69
2018-09-21T10:23:36.253Z,981.56
2018-09-21T10:24:36.444Z,981.62
2018-09-21T10:25:36.552Z,981.63
2018-09-21T10:26:36.697Z,981.56
2018-09-21T10:27:36.928Z,981.64
2018-09-21T10:28:37.095Z,981.66
2018-09-21T10:29:37.149Z,981.53
2018-09-21T10:30:37.273Z,981.79
2018-09-21T10:31:37.411Z,981.80
2018-09-21T10:32:37.577Z,982.21
2018-09-21T10:33:37.844Z,981.75
2018-09-21T10:34:37.880Z,981.67
2018-09-21T10:35:38.047Z,981.62
2018-09-21T10:36:38.089Z,981.77
2018-09-21T10:37:38.241Z,981.76
2018-09-21T10:38:38.461Z,981.76
2018-09-21T10:39:38.575Z,981.77
2018-09-21T10:40:38.685Z,981.52
2018-09-21T10:41:38.826Z,981.74
2018-09-21T10:42:39.030Z,981.83
2018-09-21T10:43:39.092Z,982.04
2018-09-21T10:44:39.238Z,981.76
2018-09-21T10:45:39.380Z,981.78
2018-09-21T10:46:39.525Z,981.42
2018-09-21T10:47:39.688Z,981.63
2018-09-21T10:48:39.819Z,981.42
2018-09-21T10:49:39.980Z,981.62
2018-09-21T10:50:40.118Z,981.31
2018-09-21T10:51:40.261Z,981.43
2018-09-21T10:52:40.480Z,981.25
2018-09-21T10:53:40.569Z,981.36
2018-09-21T10:54:40.710Z,981.42
2018-09-21T10:55:40.870Z,981.50
2018-09-21T10:56:41.008Z,981.45
2018-09-21T10:57:41.180Z,981.50
2018-09-21T10:58:41.381Z,981.84
2018-09-21T10:59:41.472Z,981.28
2018-09-21T11:00:41.617Z,981.46
2018-09-21T11:01:41.782Z,981.33
2018-09-21T11:02:41.920Z,981.36
2018-09-21T11:03:42.058Z,981.46
2018-09-21T11:04:42.265Z,981.54
2018-09-21T11:05:42.353Z,981.56
2018-09-21T11:06:42.494Z,981.52
2018-09-21T11:07:42.635Z,981.58
2018-09-21T11:08:42.807Z,981.45
2018-09-21T11:09:42.949Z,981.48
2018-09-21T11:10:43.089Z,981.75
2018-09-21T11:11:43.225Z,981.52
2018-09-21T11:12:43.381Z,981.43
2018-09-21T11:13:43.506Z,981.44
2018-09-21T11:14:43.651Z,981.72
2018-09-21T11:15:43.801Z,981.55
2018-09-21T11:16:43.936Z,981.60
2018-09-21T11:17:44.076Z,981.65
2018-09-21T11:18:44.224Z,981.59
2018-09-21T11:19:44.387Z,981.54
2018-09-21T11:20:44.523Z,981.70
2018-09-21T11:21:44.669Z,981.57
2018-09-21T11:22:44.817Z,981.45
2018-09-21T11:23:44.959Z,981.65
2018-09-21T11:24:45.096Z,981.51
2018-09-21T11:25:45.270Z,981.54
2018-09-21T11:26:45.418Z,981.61
2018-09-21T11:27:45.562Z,981.52
2018-09-21T11:28:45.700Z,981.54
2018-09-21T11:29:45.853Z,981.62
2018-09-21T11:30:45.996Z,981.60
2018-09-21T11:31:46.140Z,981.49
2018-09-21T11:32:46.279Z,981.38
2018-09-21T11:33:46.451Z,981.36
2018-09-21T11:34:46.591Z,981.44
2018-09-21T11:35:46.724Z,981.57
2018-09-21T11:36:46.860Z,981.37
2018-09-21T11:37:47.019Z,981.40
2018-09-21T11:38:47.149Z,981.32
2018-09-21T11:39:47.331Z,981.19
2018-09-21T11:40:47.452Z,981.23
2018-09-21T11:41:47.593Z,981.43
2018-09-21T11:42:47.744Z,981.28
2018-09-21T11:43:47.893Z,981.17
2018-09-21T11:44:48.034Z,981.17
2018-09-21T11:45:48.191Z,981.33
2018-09-21T11:46:48.381Z,981.48
2018-09-21T11:47:48.568Z,981.18
2018-09-21T11:48:48.638Z,981.01
2018-09-21T11:49:48.785Z,981.18
2018-09-21T11:50:48.926Z,980.96
2018-09-21T11:51:49.071Z,981.05
2018-09-21T11:52:49.218Z,980.95
2018-09-21T11:53:49.363Z,980.99
2018-09-21T11:54:49.516Z,981.16
2018-09-21T11:55:49.653Z,981.15
2018-09-21T11:56:49.836Z,980.89
2018-09-21T11:57:49.941Z,980.91
2018-09-21T11:58:50.095Z,980.84
2018-09-21T11:59:50.223Z,980.97
2018-09-21T12:00:50.363Z,980.92
2018-09-21T12:01:50.556Z,981.19
2018-09-21T12:02:50.646Z,981.10
2018-09-21T12:03:50.786Z,980.80
2018-09-21T12:04:50.977Z,980.79
2018-09-21T12:05:51.073Z,980.78
2018-09-21T12:06:51.214Z,980.71
2018-09-21T12:07:51.356Z,980.83
2018-09-21T12:08:51.514Z,980.85
2018-09-21T12:09:51.648Z,980.97
2018-09-21T12:10:51.787Z,980.71
2018-09-21T12:11:51.924Z,980.85
2018-09-21T12:12:52.054Z,980.84
2018-09-21T12:13:52.207Z,980.76
2018-09-21T12:14:52.359Z,980.60
2018-09-21T12:15:52.511Z,980.82
2018-09-21T12:16:52.668Z,980.79
2018-09-21T12:17:52.778Z,980.80
2018-09-21T12:18:52.969Z,980.81
2018-09-21T12:19:53.112Z,980.77
2018-09-21T12:20:53.249Z,980.77
2018-09-21T12:21:53.400Z,980.73
2018-09-21T12:22:53.536Z,980.81
2018-09-21T12:23:53.684Z,980.82
2018-09-21T12:24:53.830Z,980.67
2018-09-21T12:25:53.961Z,980.84
2018-09-21T12:26:54.101Z,980.61
2018-09-21T12:27:54.244Z,980.70
2018-09-21T12:28:54.386Z,980.65
2018-09-21T12:29:54.527Z,980.70
2018-09-21T12:30:54.677Z,980.97
2018-09-21T12:31:54.818Z,980.64